Time;durP1;ratioP1;P1;durP2;ratioP2;P2;SDS_P1;SDS_P2;PMS_P1;PMS_P2;Temp;Humidity;BMP_temperature;BMP_pressure;BME280_temperature;BME280_humidity;BME280_pressure;Samples;Min_cycle;Max_cycle;Signal;HPM_P1;HPM_P2
2021/06/07 00:00:26;;;;;;;;;;;28.40;64.90;;;;;;5103665;28;19935;-35
2021/06/07 00:02:52;;;;;;;;;;;28.40;64.90;;;;;;5103392;28;20007;-34
2021/06/07 00:05:18;;;;;;;;;;;28.40;64.90;;;;;;5103737;28;19912;-35
2021/06/07 00:07:44;;;;;;;;;;;28.40;65.00;;;;;;5103802;28;19981;-35
2021/06/07 00:10:10;;;;;;;;;;;28.40;64.90;;;;;;5103367;28;20439;-35
2021/06/07 00:12:36;;;;;;;;;;;28.40;64.90;;;;;;5103320;28;19934;-35
2021/06/07 00:15:04;;;;;;;;;;;28.40;65.00;;;;;;5085293;28;19912;-35
2021/06/07 00:17:30;;;;;;;;;;;28.40;65.00;;;;;;5103570;28;19912;-35
2021/06/07 00:19:56;;;;;;;;;;;28.40;65.00;;;;;;5115594;28;19912;-36
2021/06/07 00:22:22;;;;;;;;;;;28.40;65.10;;;;;;5103012;28;19919;-35
2021/06/07 00:24:48;;;;;;;;;;;28.30;65.00;;;;;;5103095;28;19995;-35
2021/06/07 00:27:14;;;;;;;;;;;28.40;65.10;;;;;;5103332;28;19976;-35
2021/06/07 00:29:39;;;;;;;;;;;28.40;65.10;;;;;;5103318;28;19947;-35
2021/06/07 00:32:06;;;;;;;;;;;28.40;65.10;;;;;;5103220;28;19908;-36
2021/06/07 00:34:32;;;;;;;;;;;28.30;65.00;;;;;;5103297;28;19912;-35
2021/06/07 00:36:57;;;;;;;;;;;28.30;65.00;;;;;;5103203;28;19919;-35
2021/06/07 00:39:23;;;;;;;;;;;28.30;65.00;;;;;;5103068;28;20394;-35
2021/06/07 00:41:49;;;;;;;;;;;28.30;65.10;;;;;;5122121;28;19915;-35
2021/06/07 00:44:16;;;;;;;;;;;28.30;65.10;;;;;;5123616;28;19922;-35
2021/06/07 00:46:42;;;;;;;;;;;28.30;65.10;;;;;;5123047;28;19977;-35
2021/06/07 00:49:08;;;;;;;;;;;28.30;65.10;;;;;;5111628;28;20376;-35
2021/06/07 00:51:34;;;;;;;;;;;28.30;65.10;;;;;;5102685;28;19913;-34
2021/06/07 00:54:00;;;;;;;;;;;28.30;65.20;;;;;;5108688;28;19915;-35
2021/06/07 00:56:26;;;;;;;;;;;28.30;65.20;;;;;;5102901;28;19912;-35
2021/06/07 00:58:52;;;;;;;;;;;28.30;65.20;;;;;;5103140;28;20011;-35
2021/06/07 01:01:19;;;;;;;;;;;28.30;65.20;;;;;;5102882;28;19951;-35
2021/06/07 01:03:45;;;;;;;;;;;28.20;65.10;;;;;;5102771;28;19997;-35
2021/06/07 01:06:12;;;;;;;;;;;28.30;65.20;;;;;;5102807;28;19912;-35
2021/06/07 01:08:38;;;;;;;;;;;28.20;65.10;;;;;;5102695;28;19912;-35
2021/06/07 01:11:03;;;;;;;;;;;28.20;65.10;;;;;;5104429;28;20296;-35
2021/06/07 01:13:29;;;;;;;;;;;28.20;65.10;;;;;;5106516;28;19916;-35
2021/06/07 01:15:56;;;;;;;;;;;28.20;65.20;;;;;;5102773;28;20324;-35
2021/06/07 01:18:23;;;;;;;;;;;28.20;65.20;;;;;;5108138;28;19912;-35
2021/06/07 01:20:49;;;;;;;;;;;28.20;65.30;;;;;;5104505;28;19916;-35
2021/06/07 01:23:15;;;;;;;;;;;28.20;65.20;;;;;;5122574;28;19923;-35
2021/06/07 01:25:41;;;;;;;;;;;28.20;65.30;;;;;;5122892;28;19977;-35
2021/06/07 01:28:08;;;;;;;;;;;28.10;65.20;;;;;;5123071;28;19938;-35
2021/06/07 01:30:35;;;;;;;;;;;28.10;65.20;;;;;;5123138;28;19908;-35
2021/06/07 01:33:01;;;;;;;;;;;28.10;65.20;;;;;;5122998;28;19908;-35
2021/06/07 01:35:27;;;;;;;;;;;28.10;65.20;;;;;;5123094;28;19968;-35
2021/06/07 01:37:53;;;;;;;;;;;28.10;65.30;;;;;;5123042;28;19912;-35
2021/06/07 01:40:20;;;;;;;;;;;28.10;65.30;;;;;;5114998;28;20006;-35
2021/06/07 01:42:46;;;;;;;;;;;28.10;65.30;;;;;;5102224;28;19919;-35
2021/06/07 01:45:13;;;;;;;;;;;28.10;65.40;;;;;;5102453;28;20002;-35
2021/06/07 01:47:39;;;;;;;;;;;28.00;65.30;;;;;;5102573;28;20295;-35
2021/06/07 01:50:05;;;;;;;;;;;28.00;65.30;;;;;;5114731;28;19951;-37
2021/06/07 01:52:31;;;;;;;;;;;28.00;65.30;;;;;;5104615;28;20011;-38
2021/06/07 01:54:57;;;;;;;;;;;28.00;65.40;;;;;;5102185;28;19908;-38
2021/06/07 01:57:23;;;;;;;;;;;28.00;65.30;;;;;;5105303;28;19919;-37
2021/06/07 01:59:49;;;;;;;;;;;28.00;65.40;;;;;;5104750;28;19916;-37
2021/06/07 02:02:15;;;;;;;;;;;28.00;65.40;;;;;;5111413;28;20356;-37
2021/06/07 02:04:41;;;;;;;;;;;28.00;65.40;;;;;;5126036;28;19916;-36
2021/06/07 02:07:07;;;;;;;;;;;27.90;65.40;;;;;;5126221;28;19911;-36
2021/06/07 02:09:32;;;;;;;;;;;28.00;65.50;;;;;;5125522;28;19919;-35
2021/06/07 02:11:58;;;;;;;;;;;27.90;65.40;;;;;;5121846;28;19918;-35
2021/06/07 02:14:24;;;;;;;;;;;27.90;65.40;;;;;;5125995;28;19954;-35
2021/06/07 02:16:50;;;;;;;;;;;27.90;65.40;;;;;;5126042;28;20003;-35
2021/06/07 02:19:16;;;;;;;;;;;27.90;65.50;;;;;;5113086;28;19912;-35
2021/06/07 02:21:42;;;;;;;;;;;27.90;65.40;;;;;;5105245;28;19920;-36
2021/06/07 02:24:08;;;;;;;;;;;27.90;65.40;;;;;;5105234;28;19956;-35
2021/06/07 02:26:34;;;;;;;;;;;27.90;65.50;;;;;;5105245;28;19912;-35
2021/06/07 02:29:05;;;;;;;;;;;27.90;65.50;;;;;;5087379;28;19912;-35
2021/06/07 02:31:31;;;;;;;;;;;27.90;65.60;;;;;;5105433;28;19930;-35
2021/06/07 02:33:57;;;;;;;;;;;27.80;65.50;;;;;;5105129;28;19908;-35
2021/06/07 02:36:25;;;;;;;;;;;27.80;65.60;;;;;;5105146;28;19912;-35
2021/06/07 02:38:51;;;;;;;;;;;27.80;65.60;;;;;;5105147;28;19912;-35
2021/06/07 02:41:17;;;;;;;;;;;27.80;65.60;;;;;;5111051;28;19923;-35
2021/06/07 02:43:43;;;;;;;;;;;27.80;65.70;;;;;;5104771;28;19926;-35
2021/06/07 02:46:09;;;;;;;;;;;27.80;65.70;;;;;;5105169;28;19936;-35
2021/06/07 02:48:36;;;;;;;;;;;27.70;65.60;;;;;;5104890;28;20353;-35
2021/06/07 02:51:02;;;;;;;;;;;27.70;65.70;;;;;;5086205;28;19988;-35
2021/06/07 02:53:28;;;;;;;;;;;27.70;65.70;;;;;;5109817;28;19912;-35
2021/06/07 02:55:54;;;;;;;;;;;27.70;65.70;;;;;;5125477;28;19908;-35
2021/06/07 02:58:21;;;;;;;;;;;27.70;65.60;;;;;;5125130;28;19912;-35
2021/06/07 03:00:48;;;;;;;;;;;27.70;65.60;;;;;;5125260;28;19912;-35
2021/06/07 03:03:14;;;;;;;;;;;27.70;65.60;;;;;;5125105;28;19923;-35
2021/06/07 03:05:40;;;;;;;;;;;27.70;65.60;;;;;;5106291;28;19916;-35
2021/06/07 03:08:06;;;;;;;;;;;27.70;65.50;;;;;;5125023;28;19919;-35
2021/06/07 03:10:32;;;;;;;;;;;27.70;65.50;;;;;;5115521;28;19908;-35
2021/06/07 03:12:58;;;;;;;;;;;27.70;65.60;;;;;;5104495;28;19912;-34
2021/06/07 03:15:24;;;;;;;;;;;27.70;65.60;;;;;;5104341;28;19934;-35
2021/06/07 03:17:50;;;;;;;;;;;27.60;65.50;;;;;;5111352;28;19915;-35
2021/06/07 03:20:17;;;;;;;;;;;27.60;65.40;;;;;;5101935;28;20474;-36
2021/06/07 03:22:43;;;;;;;;;;;27.60;65.40;;;;;;5100147;28;19973;-35
2021/06/07 03:25:09;;;;;;;;;;;27.60;65.40;;;;;;5104805;28;19911;-35
2021/06/07 03:27:35;;;;;;;;;;;27.60;65.40;;;;;;5098740;28;19919;-35
2021/06/07 03:30:01;;;;;;;;;;;27.60;65.60;;;;;;5084481;28;19950;-35
2021/06/07 03:32:27;;;;;;;;;;;27.50;65.50;;;;;;5101459;28;19912;-35
2021/06/07 03:34:53;;;;;;;;;;;27.50;65.50;;;;;;5100451;28;19916;-34
2021/06/07 03:37:18;;;;;;;;;;;27.50;65.60;;;;;;5105175;28;19911;-36
2021/06/07 03:39:44;;;;;;;;;;;27.50;65.60;;;;;;5103284;28;19919;-35
2021/06/07 03:42:10;;;;;;;;;;;27.50;65.50;;;;;;5103674;28;20354;-35
2021/06/07 03:44:36;;;;;;;;;;;27.50;65.50;;;;;;5102370;28;19916;-35
2021/06/07 03:47:02;;;;;;;;;;;27.40;65.40;;;;;;5102526;28;19998;-35
2021/06/07 03:49:28;;;;;;;;;;;27.40;65.40;;;;;;5102559;28;19912;-35
2021/06/07 03:51:54;;;;;;;;;;;27.40;65.40;;;;;;5107975;28;19914;-35
2021/06/07 03:54:20;;;;;;;;;;;27.40;65.40;;;;;;5103597;28;20007;-35
2021/06/07 03:56:46;;;;;;;;;;;27.40;65.20;;;;;;5109173;28;19930;-35
2021/06/07 03:59:12;;;;;;;;;;;27.40;65.30;;;;;;5115115;28;19918;-35
2021/06/07 04:01:38;;;;;;;;;;;27.40;65.10;;;;;;5124111;28;19919;-35
2021/06/07 04:04:04;;;;;;;;;;;27.40;65.20;;;;;;5123987;28;19919;-35
2021/06/07 04:06:30;;;;;;;;;;;27.30;65.80;;;;;;5123479;28;20363;-35
2021/06/07 04:08:58;;;;;;;;;;;27.30;65.10;;;;;;5123961;28;19942;-35
2021/06/07 04:11:24;;;;;;;;;;;27.30;65.10;;;;;;5107653;28;19909;-35
2021/06/07 04:13:50;;;;;;;;;;;27.30;65.10;;;;;;5103508;28;19939;-35
2021/06/07 04:16:16;;;;;;;;;;;27.30;65.20;;;;;;5102878;28;19908;-35
2021/06/07 04:18:42;;;;;;;;;;;27.30;65.20;;;;;;5103328;28;19908;-35
2021/06/07 04:21:08;;;;;;;;;;;27.30;65.10;;;;;;5101084;28;20439;-35
2021/06/07 04:23:34;;;;;;;;;;;27.20;65.10;;;;;;5123150;28;19987;-35
2021/06/07 04:25:59;;;;;;;;;;;27.20;65.20;;;;;;5123737;28;19923;-35
2021/06/07 04:28:25;;;;;;;;;;;27.20;65.30;;;;;;5123982;28;19934;-37
2021/06/07 04:30:51;;;;;;;;;;;27.20;65.20;;;;;;5123646;28;20292;-35
2021/06/07 04:33:17;;;;;;;;;;;27.20;65.30;;;;;;5123780;28;20093;-35
2021/06/07 04:35:43;;;;;;;;;;;27.20;65.30;;;;;;5123401;28;19922;-35
2021/06/07 04:38:09;;;;;;;;;;;27.20;66.10;;;;;;5123709;28;19916;-37
2021/06/07 04:40:36;;;;;;;;;;;27.10;65.30;;;;;;5114297;28;19919;-35
2021/06/07 04:43:02;;;;;;;;;;;27.10;65.30;;;;;;5103043;28;19912;-35
2021/06/07 04:45:28;;;;;;;;;;;27.10;65.30;;;;;;5102734;28;19913;-35
2021/06/07 04:47:54;;;;;;;;;;;27.10;65.20;;;;;;5103110;28;19912;-35
2021/06/07 04:50:21;;;;;;;;;;;27.10;65.30;;;;;;5107755;28;19912;-35
2021/06/07 04:52:59;;;;;;;;;;;27.10;65.20;;;;;;5109244;28;19911;-35
2021/06/07 04:55:28;;;;;;;;;;;27.10;65.20;;;;;;5102814;28;19978;-35
2021/06/07 04:57:54;;;;;;;;;;;27.10;65.30;;;;;;5103080;28;19944;-35
2021/06/07 05:00:21;;;;;;;;;;;27.10;65.20;;;;;;5103135;28;19922;-35
2021/06/07 05:02:47;;;;;;;;;;;27.10;65.20;;;;;;5103047;28;19912;-35
2021/06/07 05:05:13;;;;;;;;;;;27.10;65.10;;;;;;5102465;28;19912;-35
2021/06/07 05:07:39;;;;;;;;;;;27.10;65.10;;;;;;5103050;28;19958;-35
2021/06/07 05:10:05;;;;;;;;;;;27.00;65.00;;;;;;5107669;28;19912;-35
2021/06/07 05:12:31;;;;;;;;;;;27.00;65.10;;;;;;5123155;28;19972;-35
2021/06/07 05:14:59;;;;;;;;;;;27.00;65.10;;;;;;5104053;28;19908;-35
2021/06/07 05:17:26;;;;;;;;;;;27.00;65.00;;;;;;5102910;28;19919;-35
2021/06/07 05:19:51;;;;;;;;;;;27.00;65.20;;;;;;5105914;28;19914;-35
2021/06/07 05:22:17;;;;;;;;;;;27.00;65.20;;;;;;5108028;28;19955;-35
2021/06/07 05:24:43;;;;;;;;;;;27.00;65.30;;;;;;5108847;28;20304;-35
2021/06/07 05:27:09;;;;;;;;;;;26.90;65.10;;;;;;5109023;28;19908;-35
2021/06/07 05:29:35;;;;;;;;;;;26.90;65.20;;;;;;5106040;28;20611;-35
2021/06/07 05:32:01;;;;;;;;;;;26.90;65.30;;;;;;5105019;28;19919;-35
2021/06/07 05:34:27;;;;;;;;;;;26.90;65.30;;;;;;5111873;28;19930;-35
2021/06/07 05:36:53;;;;;;;;;;;26.90;65.30;;;;;;5110672;28;19916;-35
2021/06/07 05:39:21;;;;;;;;;;;26.90;65.30;;;;;;5114914;28;19908;-35
2021/06/07 05:41:47;;;;;;;;;;;26.90;65.30;;;;;;5112477;28;19912;-34
2021/06/07 05:44:13;;;;;;;;;;;26.90;65.30;;;;;;5111526;28;19926;-35
2021/06/07 05:46:39;;;;;;;;;;;26.80;65.00;;;;;;5111072;28;20276;-35
2021/06/07 05:49:05;;;;;;;;;;;26.80;65.10;;;;;;5110715;28;19994;-35
2021/06/07 05:51:31;;;;;;;;;;;26.80;65.00;;;;;;5106219;28;20010;-35
2021/06/07 05:53:57;;;;;;;;;;;26.80;65.00;;;;;;5111912;28;19916;-35
2021/06/07 05:56:23;;;;;;;;;;;26.80;65.00;;;;;;5105992;28;19943;-35
2021/06/07 05:58:49;;;;;;;;;;;26.80;65.00;;;;;;5106115;28;19912;-35
2021/06/07 06:01:15;;;;;;;;;;;26.80;65.00;;;;;;5106031;28;19934;-35
2021/06/07 06:03:41;;;;;;;;;;;26.70;64.90;;;;;;5106057;28;19924;-35
2021/06/07 06:06:07;;;;;;;;;;;26.70;65.00;;;;;;5105649;28;19931;-35
2021/06/07 06:08:33;;;;;;;;;;;26.70;65.00;;;;;;5105923;28;19912;-35
2021/06/07 06:10:58;;;;;;;;;;;26.70;65.00;;;;;;5105953;28;19919;-35
2021/06/07 06:13:24;;;;;;;;;;;26.70;65.10;;;;;;5105793;28;19908;-35
2021/06/07 06:15:50;;;;;;;;;;;26.70;65.10;;;;;;5105496;28;19948;-35
2021/06/07 06:18:16;;;;;;;;;;;26.70;65.20;;;;;;5105824;28;19912;-35
2021/06/07 06:20:42;;;;;;;;;;;26.70;65.30;;;;;;5118390;28;19915;-35
2021/06/07 06:23:08;;;;;;;;;;;26.60;65.20;;;;;;5125967;28;20488;-35
2021/06/07 06:25:34;;;;;;;;;;;26.60;65.20;;;;;;5125856;28;19911;-35
2021/06/07 06:28:00;;;;;;;;;;;26.60;65.30;;;;;;5126107;28;19934;-35
2021/06/07 06:30:27;;;;;;;;;;;26.60;65.30;;;;;;5125996;28;20697;-35
2021/06/07 06:32:53;;;;;;;;;;;26.60;65.20;;;;;;5125912;28;19919;-35
2021/06/07 06:35:19;;;;;;;;;;;26.60;65.10;;;;;;5125450;28;19916;-35
2021/06/07 06:37:46;;;;;;;;;;;26.60;65.00;;;;;;5107362;28;19912;-35
2021/06/07 06:40:14;;;;;;;;;;;26.50;65.00;;;;;;5119437;28;19912;-35
2021/06/07 06:42:41;;;;;;;;;;;26.50;65.00;;;;;;5105386;28;19912;-35
2021/06/07 06:45:07;;;;;;;;;;;26.50;65.00;;;;;;5104146;28;19970;-35
2021/06/07 06:47:34;;;;;;;;;;;26.50;65.00;;;;;;5105250;28;19919;-35
2021/06/07 06:50:01;;;;;;;;;;;26.50;65.00;;;;;;5110013;28;20367;-35
2021/06/07 06:52:27;;;;;;;;;;;26.50;65.00;;;;;;5105119;28;19975;-35
2021/06/07 06:54:53;;;;;;;;;;;26.50;65.00;;;;;;5109820;28;19923;-35
2021/06/07 06:57:19;;;;;;;;;;;26.50;65.10;;;;;;5104854;28;19916;-35
2021/06/07 06:59:45;;;;;;;;;;;26.40;65.00;;;;;;5104950;28;20004;-35
2021/06/07 07:02:11;;;;;;;;;;;26.40;65.00;;;;;;5104933;28;19979;-35
2021/06/07 07:04:37;;;;;;;;;;;26.40;65.80;;;;;;5111337;28;19916;-35
2021/06/07 07:07:03;;;;;;;;;;;26.40;65.00;;;;;;5124846;28;19911;-35
2021/06/07 07:09:29;;;;;;;;;;;26.40;65.00;;;;;;5125309;28;19912;-35
2021/06/07 07:11:54;;;;;;;;;;;26.40;65.10;;;;;;5104661;28;19908;-35
2021/06/07 07:14:20;;;;;;;;;;;26.40;65.20;;;;;;5107337;28;19911;-35
2021/06/07 07:16:46;;;;;;;;;;;26.30;65.20;;;;;;5104355;28;19989;-35
2021/06/07 07:19:12;;;;;;;;;;;26.30;65.10;;;;;;5104787;28;19915;-35
2021/06/07 07:21:38;;;;;;;;;;;26.30;65.20;;;;;;5104396;28;19916;-35
2021/06/07 07:24:04;;;;;;;;;;;26.30;65.20;;;;;;5104379;28;19989;-35
2021/06/07 07:26:30;;;;;;;;;;;26.30;65.20;;;;;;5104238;28;19918;-35
2021/06/07 07:28:56;;;;;;;;;;;26.30;65.10;;;;;;5104657;28;20218;-35
2021/06/07 07:31:22;;;;;;;;;;;26.30;65.10;;;;;;5104493;28;19912;-35
2021/06/07 07:33:49;;;;;;;;;;;26.30;65.10;;;;;;5104393;28;19912;-35
2021/06/07 07:36:15;;;;;;;;;;;26.30;65.20;;;;;;5104083;28;19912;-35
2021/06/07 07:38:41;;;;;;;;;;;26.20;65.10;;;;;;5104164;28;20357;-35
2021/06/07 07:41:07;;;;;;;;;;;26.20;65.10;;;;;;5104144;28;19913;-35
2021/06/07 07:43:33;;;;;;;;;;;26.20;65.10;;;;;;5107587;28;19934;-35
2021/06/07 07:45:59;;;;;;;;;;;26.20;65.00;;;;;;5103725;28;19916;-35
2021/06/07 07:48:25;;;;;;;;;;;26.20;65.10;;;;;;5104162;28;20585;-35
2021/06/07 07:50:51;;;;;;;;;;;26.20;65.10;;;;;;5106256;28;19931;-34
2021/06/07 07:53:17;;;;;;;;;;;26.20;65.10;;;;;;5112858;28;19911;-35
2021/06/07 07:55:43;;;;;;;;;;;26.10;65.00;;;;;;5107158;28;19915;-35
2021/06/07 07:58:11;;;;;;;;;;;26.10;65.10;;;;;;5109125;28;20007;-35
2021/06/07 08:00:37;;;;;;;;;;;26.10;65.10;;;;;;5106693;28;19918;-35
2021/06/07 08:03:03;;;;;;;;;;;26.10;65.10;;;;;;5107164;28;19916;-35
2021/06/07 08:05:29;;;;;;;;;;;26.10;65.10;;;;;;5110368;28;19912;-35
2021/06/07 08:07:55;;;;;;;;;;;26.10;65.10;;;;;;5104939;28;19916;-35
2021/06/07 08:10:21;;;;;;;;;;;26.10;65.20;;;;;;5107447;28;19907;-36
2021/06/07 08:12:47;;;;;;;;;;;26.10;65.20;;;;;;5106397;28;19912;-35
2021/06/07 08:15:13;;;;;;;;;;;26.10;65.20;;;;;;5107670;28;19915;-34
2021/06/07 08:17:39;;;;;;;;;;;26.00;65.10;;;;;;5104622;28;20198;-35
2021/06/07 08:20:09;;;;;;;;;;;26.00;65.10;;;;;;5102861;28;19912;-35
2021/06/07 08:22:35;;;;;;;;;;;26.00;65.10;;;;;;5103241;28;19935;-35
2021/06/07 08:25:01;;;;;;;;;;;26.00;65.10;;;;;;5102987;28;20300;-35
2021/06/07 08:27:30;;;;;;;;;;;26.00;65.10;;;;;;5102511;28;20492;-35
2021/06/07 08:29:56;;;;;;;;;;;26.00;65.10;;;;;;5103545;28;19951;-35
2021/06/07 08:32:22;;;;;;;;;;;26.00;65.20;;;;;;5103420;28;19916;-36
2021/06/07 08:34:47;;;;;;;;;;;26.00;65.20;;;;;;5103350;28;19912;-35
2021/06/07 08:37:14;;;;;;;;;;;26.00;65.10;;;;;;5084567;28;19912;-35
2021/06/07 08:39:40;;;;;;;;;;;25.90;65.00;;;;;;5084961;28;20411;-35
2021/06/07 08:42:06;;;;;;;;;;;25.90;65.10;;;;;;5103155;28;19912;-35
2021/06/07 08:44:32;;;;;;;;;;;25.90;65.10;;;;;;5103201;28;19920;-36
2021/06/07 08:46:58;;;;;;;;;;;25.90;65.10;;;;;;5103038;28;19923;-36
2021/06/07 08:49:23;;;;;;;;;;;25.90;65.10;;;;;;5105010;28;19912;-35
2021/06/07 08:51:50;;;;;;;;;;;25.90;65.10;;;;;;5123491;28;20284;-35
2021/06/07 08:54:16;;;;;;;;;;;25.90;65.20;;;;;;5112454;28;19912;-35
2021/06/07 08:56:43;;;;;;;;;;;25.80;65.10;;;;;;5107789;28;20053;-35
2021/06/07 08:59:09;;;;;;;;;;;25.80;65.20;;;;;;5112832;28;19912;-35
2021/06/07 09:01:35;;;;;;;;;;;25.80;65.20;;;;;;5106214;28;20375;-35
2021/06/07 09:04:17;;;;;;;;;;;25.80;65.20;;;;;;5105561;28;19919;-35
2021/06/07 09:06:45;;;;;;;;;;;25.80;65.20;;;;;;5104802;28;19927;-35
2021/06/07 09:09:11;;;;;;;;;;;25.80;65.20;;;;;;5109129;28;19965;-35
2021/06/07 09:11:41;;;;;;;;;;;25.80;65.20;;;;;;5095289;28;19912;-34
2021/06/07 09:14:40;;;;;;;;;;;25.80;65.30;;;;;;5108896;28;19912;-35
2021/06/07 09:17:15;;;;;;;;;;;25.80;65.30;;;;;;5093649;28;19912;-35
2021/06/07 09:19:41;;;;;;;;;;;25.80;65.30;;;;;;5109104;28;19957;-35
2021/06/07 09:22:24;;;;;;;;;;;25.80;65.30;;;;;;5112842;28;19924;-35
2021/06/07 09:25:09;;;;;;;;;;;25.80;65.30;;;;;;5107342;28;19928;-35
2021/06/07 09:27:35;;;;;;;;;;;25.80;65.40;;;;;;5106540;28;19973;-35
2021/06/07 09:30:02;;;;;;;;;;;25.70;65.30;;;;;;5106816;28;19912;-35
2021/06/07 09:32:28;;;;;;;;;;;25.70;65.30;;;;;;5088448;28;19919;-35
2021/06/07 09:35:04;;;;;;;;;;;25.70;65.30;;;;;;5109329;28;19908;-35
2021/06/07 09:37:30;;;;;;;;;;;25.70;65.30;;;;;;5106089;28;19922;-35
2021/06/07 09:39:55;;;;;;;;;;;25.70;65.30;;;;;;5110492;28;19951;-34
2021/06/07 09:42:23;;;;;;;;;;;25.70;65.30;;;;;;5107735;28;19979;-35
2021/06/07 09:44:52;;;;;;;;;;;25.70;65.40;;;;;;5124904;28;19920;-35
2021/06/07 09:47:24;;;;;;;;;;;25.70;65.40;;;;;;5126727;28;19912;-35
2021/06/07 09:49:51;;;;;;;;;;;25.60;65.40;;;;;;5121000;28;19923;-35
2021/06/07 09:52:17;;;;;;;;;;;25.60;65.50;;;;;;5106585;28;20014;-35
2021/06/07 09:54:43;;;;;;;;;;;25.60;65.50;;;;;;5112082;28;20576;-35
2021/06/07 09:57:09;;;;;;;;;;;25.60;65.50;;;;;;5088048;28;19962;-35
2021/06/07 09:59:36;;;;;;;;;;;25.60;65.60;;;;;;5105880;28;19919;-35
2021/06/07 10:02:12;;;;;;;;;;;25.60;65.60;;;;;;5106124;28;19912;-35
2021/06/07 10:04:51;;;;;;;;;;;25.60;65.60;;;;;;5087877;28;19920;-35
2021/06/07 10:07:18;;;;;;;;;;;25.60;65.60;;;;;;5105932;28;19975;-35
2021/06/07 10:10:02;;;;;;;;;;;25.60;65.60;;;;;;5106224;28;19978;-35
2021/06/07 10:12:28;;;;;;;;;;;25.60;65.60;;;;;;5105878;28;20395;-35
2021/06/07 10:14:54;;;;;;;;;;;25.60;65.60;;;;;;5105783;28;19908;-34
2021/06/07 10:17:19;;;;;;;;;;;25.60;65.60;;;;;;5105766;28;19986;-35
2021/06/07 10:22:12;;;;;;;;;;;25.60;65.70;;;;;;5125828;28;19924;-34
2021/06/07 10:24:39;;;;;;;;;;;25.60;65.70;;;;;;5109911;28;19931;-35
2021/06/07 10:27:05;;;;;;;;;;;25.60;65.70;;;;;;5105609;28;19951;-35
2021/06/07 10:29:38;;;;;;;;;;;25.50;65.70;;;;;;5105357;28;19919;-35
2021/06/07 10:32:08;;;;;;;;;;;25.50;65.70;;;;;;5105517;28;19912;-35
2021/06/07 10:34:46;;;;;;;;;;;25.50;65.70;;;;;;5105322;28;19944;-35
2021/06/07 10:37:12;;;;;;;;;;;25.50;65.70;;;;;;5105132;28;19935;-35
2021/06/07 10:39:38;;;;;;;;;;;25.50;65.80;;;;;;5106765;28;19912;-35
2021/06/07 10:42:09;;;;;;;;;;;25.50;65.80;;;;;;5125165;28;20143;-35
2021/06/07 10:44:39;;;;;;;;;;;25.50;65.80;;;;;;5125415;28;19919;-35
2021/06/07 10:47:09;;;;;;;;;;;25.50;65.90;;;;;;5107391;28;19911;-35
2021/06/07 10:49:39;;;;;;;;;;;25.50;66.00;;;;;;5103426;28;19979;-35
2021/06/07 10:52:25;;;;;;;;;;;25.50;66.00;;;;;;5106135;28;19975;-35
2021/06/07 10:54:57;;;;;;;;;;;25.50;66.00;;;;;;5114675;28;19919;-35
2021/06/07 10:57:26;;;;;;;;;;;25.50;66.10;;;;;;5125435;28;19966;-35
2021/06/07 10:59:59;;;;;;;;;;;25.50;66.10;;;;;;5125072;28;19908;-35
2021/06/07 11:02:25;;;;;;;;;;;25.40;66.00;;;;;;5125516;28;20398;-35
2021/06/07 11:05:13;;;;;;;;;;;25.40;66.10;;;;;;5125167;28;19973;-35
2021/06/07 11:07:43;;;;;;;;;;;25.40;66.00;;;;;;5125092;28;19968;-35
2021/06/07 11:10:14;;;;;;;;;;;25.40;66.10;;;;;;5118730;28;19908;-35
2021/06/07 11:12:40;;;;;;;;;;;25.40;66.10;;;;;;5104658;28;20392;-35
2021/06/07 11:15:24;;;;;;;;;;;25.40;66.10;;;;;;5104599;28;19912;-35
2021/06/07 11:17:50;;;;;;;;;;;25.40;66.10;;;;;;5104714;28;19917;-35
2021/06/07 11:20:42;;;;;;;;;;;25.40;66.10;;;;;;5086111;28;19912;-35
2021/06/07 11:23:09;;;;;;;;;;;25.40;66.10;;;;;;5102712;28;20582;-35
2021/06/07 11:25:53;;;;;;;;;;;25.40;66.10;;;;;;5122897;28;19916;-35
2021/06/07 11:28:32;;;;;;;;;;;25.40;66.10;;;;;;5104441;28;19912;-35
2021/06/07 11:30:58;;;;;;;;;;;25.40;66.20;;;;;;5111603;28;20015;-35
2021/06/07 11:33:24;;;;;;;;;;;25.40;66.20;;;;;;5124669;28;19915;-35
2021/06/07 11:35:50;;;;;;;;;;;25.40;66.30;;;;;;5124510;28;19916;-35
2021/06/07 11:38:32;;;;;;;;;;;25.40;66.40;;;;;;5124576;28;19911;-35
2021/06/07 11:40:58;;;;;;;;;;;25.40;66.30;;;;;;5111203;28;19912;-35
2021/06/07 11:43:51;;;;;;;;;;;25.40;66.50;;;;;;5104214;28;19916;-35
2021/06/07 11:46:32;;;;;;;;;;;25.40;66.40;;;;;;5099087;28;19912;-35
2021/06/07 11:49:06;;;;;;;;;;;25.40;66.40;;;;;;5122109;28;19911;-35
2021/06/07 11:51:33;;;;;;;;;;;25.40;66.40;;;;;;5103984;28;19919;-35
2021/06/07 11:53:59;;;;;;;;;;;25.40;66.40;;;;;;5104068;28;20308;-35
2021/06/07 11:56:24;;;;;;;;;;;25.40;66.40;;;;;;5103874;28;19915;-35
2021/06/07 11:58:51;;;;;;;;;;;25.40;66.40;;;;;;5103718;28;19920;-35
2021/06/07 12:01:17;;;;;;;;;;;25.40;66.40;;;;;;5103563;28;19912;-35
2021/06/07 12:03:43;;;;;;;;;;;25.40;66.40;;;;;;5103656;28;19924;-35
2021/06/07 12:06:09;;;;;;;;;;;25.30;66.30;;;;;;5103570;28;19919;-35
2021/06/07 12:08:35;;;;;;;;;;;25.30;66.40;;;;;;5103729;28;19943;-35
2021/06/07 12:11:02;;;;;;;;;;;25.30;66.40;;;;;;5115816;28;20475;-35
2021/06/07 12:13:30;;;;;;;;;;;25.30;66.30;;;;;;5123946;28;19958;-35
2021/06/07 12:15:56;;;;;;;;;;;25.30;66.40;;;;;;5123882;28;19912;-34
2021/06/07 12:18:37;;;;;;;;;;;25.30;66.40;;;;;;5124093;28;20014;-34
2021/06/07 12:21:13;;;;;;;;;;;25.30;66.50;;;;;;5107624;28;19912;-35
2021/06/07 12:23:45;;;;;;;;;;;25.30;66.60;;;;;;5110866;28;19926;-35
2021/06/07 12:29:21;;;;;;;;;;;25.30;66.70;;;;;;5123779;28;19953;-35
2021/06/07 12:32:03;;;;;;;;;;;25.30;66.70;;;;;;5123313;28;19915;-35
2021/06/07 12:34:28;;;;;;;;;;;25.30;66.80;;;;;;5123553;28;19911;-35
2021/06/07 12:36:54;;;;;;;;;;;25.30;66.80;;;;;;5123678;28;19973;-35
2021/06/07 12:39:20;;;;;;;;;;;25.30;66.70;;;;;;5123612;28;19916;-35
2021/06/07 12:41:46;;;;;;;;;;;25.30;66.70;;;;;;5114909;28;19954;-35
2021/06/07 12:44:12;;;;;;;;;;;25.30;66.70;;;;;;5123158;28;19946;-35
2021/06/07 12:46:48;;;;;;;;;;;25.30;66.70;;;;;;5105110;28;19912;-35
2021/06/07 12:49:23;;;;;;;;;;;25.30;66.60;;;;;;5123226;28;19911;-35
2021/06/07 12:52:02;;;;;;;;;;;25.30;66.70;;;;;;5102744;28;19934;-35
2021/06/07 12:54:30;;;;;;;;;;;25.30;66.70;;;;;;5117650;28;19911;-35
2021/06/07 12:56:57;;;;;;;;;;;25.30;66.70;;;;;;5120443;28;20358;-35
2021/06/07 12:59:26;;;;;;;;;;;25.20;66.60;;;;;;5102979;28;19912;-35
2021/06/07 13:01:53;;;;;;;;;;;25.20;66.60;;;;;;5102818;28;19912;-35
2021/06/07 13:04:26;;;;;;;;;;;25.30;66.70;;;;;;5102963;28;19931;-36
2021/06/07 13:06:54;;;;;;;;;;;25.30;66.60;;;;;;5102866;28;20418;-36
2021/06/07 13:09:36;;;;;;;;;;;25.20;66.70;;;;;;5102848;28;19916;-36
2021/06/07 13:12:02;;;;;;;;;;;25.20;66.80;;;;;;5114503;28;19915;-37
2021/06/07 13:14:29;;;;;;;;;;;25.20;66.80;;;;;;5123184;28;19936;-36
2021/06/07 13:16:56;;;;;;;;;;;25.20;66.90;;;;;;5123155;28;19915;-36
2021/06/07 13:19:25;;;;;;;;;;;25.20;66.90;;;;;;5121519;28;19912;-36
2021/06/07 13:21:56;;;;;;;;;;;25.20;66.90;;;;;;5102298;28;19920;-36
2021/06/07 13:24:25;;;;;;;;;;;25.20;67.00;;;;;;5116189;28;20022;-36
2021/06/07 13:26:54;;;;;;;;;;;25.20;67.00;;;;;;5116474;28;19920;-36
2021/06/07 13:29:26;;;;;;;;;;;25.20;66.90;;;;;;5102448;28;19923;-35
2021/06/07 13:31:55;;;;;;;;;;;25.20;66.90;;;;;;5102289;28;19908;-36
2021/06/07 13:34:28;;;;;;;;;;;25.20;66.80;;;;;;5106466;28;19975;-35
2021/06/07 13:37:12;;;;;;;;;;;25.20;66.90;;;;;;5102484;28;19920;-35
2021/06/07 13:39:39;;;;;;;;;;;25.20;66.90;;;;;;5102551;28;19912;-35
2021/06/07 13:42:05;;;;;;;;;;;25.20;66.90;;;;;;5104011;28;19912;-35
2021/06/07 13:44:49;;;;;;;;;;;25.20;67.00;;;;;;5102258;28;19955;-35
2021/06/07 13:47:19;;;;;;;;;;;25.20;67.00;;;;;;5102394;28;19912;-35
2021/06/07 13:49:45;;;;;;;;;;;25.20;67.10;;;;;;5107213;28;19912;-35
2021/06/07 13:52:12;;;;;;;;;;;25.20;67.10;;;;;;5122678;28;19912;-35
2021/06/07 13:54:51;;;;;;;;;;;25.20;67.10;;;;;;5108567;28;20015;-35
2021/06/07 13:57:17;;;;;;;;;;;25.20;67.10;;;;;;5106186;28;19912;-35
2021/06/07 13:59:43;;;;;;;;;;;25.20;67.10;;;;;;5110155;28;19923;-35
2021/06/07 14:02:09;;;;;;;;;;;25.20;67.00;;;;;;5126125;28;19908;-35
2021/06/07 14:04:35;;;;;;;;;;;25.20;67.00;;;;;;5126307;28;19958;-35
2021/06/07 14:07:01;;;;;;;;;;;25.20;67.00;;;;;;5126352;28;20281;-35
2021/06/07 14:09:29;;;;;;;;;;;25.20;67.10;;;;;;5126356;28;19965;-35
2021/06/07 14:11:56;;;;;;;;;;;25.20;67.00;;;;;;5124983;28;20014;-35
2021/06/07 14:14:22;;;;;;;;;;;25.20;67.00;;;;;;5126078;28;19979;-35
2021/06/07 14:16:48;;;;;;;;;;;25.20;67.10;;;;;;5126101;28;19918;-35
2021/06/07 14:19:14;;;;;;;;;;;25.20;67.10;;;;;;5125683;28;19915;-35
2021/06/07 14:24:40;;;;;;;;;;;25.20;67.10;;;;;;5103944;28;19922;-35
2021/06/07 14:27:06;;;;;;;;;;;25.20;67.10;;;;;;5125944;28;19946;-35